createdAt,value
2023-03-04T00:00:36.164Z,4.20
2023-03-04T00:04:37.350Z,4.10
2023-03-04T00:08:38.635Z,4.00
2023-03-04T00:12:39.913Z,4.10
2023-03-04T00:16:41.147Z,4.10
2023-03-04T00:20:42.354Z,4.10
2023-03-04T00:24:43.527Z,3.90
2023-03-04T00:28:44.779Z,3.80
2023-03-04T00:32:46.028Z,3.60
2023-03-04T00:36:47.795Z,3.60
2023-03-04T00:40:48.953Z,3.60
2023-03-04T00:44:51.366Z,3.40
2023-03-04T00:48:52.547Z,3.40
2023-03-04T00:52:53.750Z,3.30
2023-03-04T00:56:54.928Z,3.30
2023-03-04T01:00:56.158Z,3.40
2023-03-04T01:04:57.267Z,3.50
2023-03-04T01:08:58.443Z,3.50
2023-03-04T01:12:59.627Z,3.60
2023-03-04T01:17:01.097Z,3.60
2023-03-04T01:21:02.532Z,3.70
2023-03-04T01:25:04.621Z,3.80
2023-03-04T01:29:06.205Z,3.80
2023-03-04T01:33:07.387Z,3.80
2023-03-04T01:37:08.680Z,4.00
2023-03-04T01:41:12.140Z,4.00
2023-03-04T01:45:16.202Z,3.80
2023-03-04T01:49:17.651Z,3.90
2023-03-04T01:53:24.624Z,4.00
2023-03-04T01:57:25.930Z,4.10
2023-03-04T02:01:27.100Z,4.20
2023-03-04T02:05:29.860Z,3.90
2023-03-04T02:09:32.654Z,3.80
2023-03-04T02:13:34.981Z,3.90
2023-03-04T02:17:36.469Z,3.80
2023-03-04T02:21:37.634Z,3.90
2023-03-04T02:25:51.168Z,3.80
2023-03-04T02:29:52.231Z,3.60
2023-03-04T02:33:55.600Z,3.60
2023-03-04T02:37:56.753Z,3.70
2023-03-04T02:41:59.506Z,3.80
2023-03-04T02:46:00.868Z,3.60
2023-03-04T02:50:02.026Z,3.60
2023-03-04T02:54:03.185Z,3.60
2023-03-04T02:58:04.546Z,3.50
2023-03-04T03:02:07.166Z,3.60
2023-03-04T03:06:08.618Z,3.80
2023-03-04T03:10:10.738Z,3.80
2023-03-04T03:14:12.002Z,3.80
2023-03-04T03:18:13.258Z,3.80
2023-03-04T03:22:14.334Z,3.90
2023-03-04T03:26:16.102Z,4.00
2023-03-04T03:30:18.028Z,4.20
2023-03-04T03:34:19.261Z,3.80
2023-03-04T03:38:20.314Z,3.70
2023-03-04T03:42:21.526Z,3.60
2023-03-04T03:46:22.592Z,3.80
2023-03-04T03:50:23.745Z,4.00
2023-03-04T03:54:24.889Z,4.00
2023-03-04T03:58:26.439Z,3.80
2023-03-04T04:02:27.723Z,4.00
2023-03-04T04:06:28.977Z,3.90
2023-03-04T04:10:30.150Z,3.90
2023-03-04T04:14:32.193Z,3.80
2023-03-04T04:18:33.348Z,3.90
2023-03-04T04:22:34.661Z,3.90
2023-03-04T04:26:35.805Z,4.20
2023-03-04T04:30:37.499Z,4.20
2023-03-04T04:34:38.611Z,4.00
2023-03-04T04:38:39.770Z,4.10
2023-03-04T04:42:40.917Z,4.00
2023-03-04T04:46:42.596Z,4.00
2023-03-04T04:50:43.760Z,3.90
2023-03-04T04:54:44.910Z,3.80
2023-03-04T04:58:47.069Z,4.00
2023-03-04T05:02:48.236Z,3.90
2023-03-04T05:06:49.389Z,4.20
2023-03-04T05:10:51.844Z,4.30
2023-03-04T05:14:52.894Z,4.40
2023-03-04T05:18:54.059Z,4.50
2023-03-04T05:22:55.424Z,4.50
2023-03-04T05:26:56.774Z,4.20
2023-03-04T05:30:57.986Z,4.40
2023-03-04T05:34:59.198Z,4.40
2023-03-04T05:39:01.256Z,4.20
2023-03-04T05:43:02.718Z,4.40
2023-03-04T05:47:03.882Z,4.40
2023-03-04T05:51:05.353Z,4.40
2023-03-04T05:55:07.225Z,4.40
2023-03-04T05:59:08.397Z,4.30
2023-03-04T06:03:14.408Z,4.50
2023-03-04T06:07:15.670Z,4.50
2023-03-04T06:11:16.925Z,4.40
2023-03-04T06:15:18.241Z,4.60
2023-03-04T06:19:19.545Z,4.60
2023-03-04T06:23:20.614Z,4.50
2023-03-04T06:27:21.752Z,4.60
2023-03-04T06:31:22.886Z,4.70
2023-03-04T06:35:24.122Z,4.50
2023-03-04T06:39:25.353Z,4.40
2023-03-04T06:43:26.507Z,4.50
2023-03-04T06:47:28.253Z,4.50
2023-03-04T06:51:29.785Z,4.60
2023-03-04T06:55:30.977Z,4.70
2023-03-04T06:59:32.291Z,4.60
2023-03-04T07:03:33.457Z,4.90
2023-03-04T07:07:34.635Z,4.90
2023-03-04T07:11:35.892Z,4.80
2023-03-04T07:15:37.347Z,4.70
2023-03-04T07:19:38.716Z,4.80
2023-03-04T07:23:40.684Z,4.90
2023-03-04T07:27:41.841Z,4.90
2023-03-04T07:31:44.096Z,5.10
2023-03-04T07:35:45.373Z,5.00
2023-03-04T07:39:47.798Z,5.20
2023-03-04T07:43:48.981Z,5.00
2023-03-04T07:47:50.729Z,5.20
2023-03-04T07:51:51.888Z,5.40
2023-03-04T07:55:53.097Z,5.40
2023-03-04T07:59:54.239Z,5.50
2023-03-04T08:03:56.379Z,5.40
2023-03-04T08:07:57.525Z,5.40
2023-03-04T08:11:58.735Z,5.50
2023-03-04T08:16:00.008Z,5.50
2023-03-04T08:20:01.158Z,5.70
2023-03-04T08:24:05.306Z,5.70
2023-03-04T08:28:07.419Z,5.80
2023-03-04T08:32:08.682Z,5.90
2023-03-04T08:36:10.386Z,5.90
2023-03-04T08:40:12.588Z,6.20
2023-03-04T08:44:13.923Z,6.60
2023-03-04T08:48:16.073Z,6.60
2023-03-04T08:52:17.232Z,6.60
2023-03-04T08:56:18.390Z,6.50
2023-03-04T09:00:20.483Z,6.50
2023-03-04T09:04:21.702Z,6.50
2023-03-04T09:08:23.235Z,6.50
2023-03-04T09:12:24.381Z,6.60
2023-03-04T09:16:25.590Z,6.40
2023-03-04T09:20:26.813Z,6.60
2023-03-04T09:24:27.983Z,6.80
2023-03-04T09:28:29.151Z,6.90
2023-03-04T09:32:30.449Z,7.00
2023-03-04T09:36:31.655Z,7.10
2023-03-04T09:40:48.328Z,7.20
2023-03-04T09:44:50.077Z,7.20
2023-03-04T09:48:54.136Z,7.20
2023-03-04T09:53:19.116Z,7.30
2023-03-04T09:57:38.934Z,7.30
2023-03-04T10:01:55.688Z,7.50
2023-03-04T10:06:06.300Z,7.60
2023-03-04T10:10:14.506Z,7.80
2023-03-04T10:14:19.460Z,7.90
2023-03-04T10:18:24.237Z,8.00
2023-03-04T10:22:47.296Z,8.10
2023-03-04T10:26:58.154Z,8.20
2023-03-04T10:31:02.313Z,8.20
2023-03-04T10:35:06.533Z,8.20
2023-03-04T10:39:12.288Z,8.40
2023-03-04T10:43:16.756Z,8.30
2023-03-04T10:47:18.140Z,8.40
2023-03-04T10:51:23.006Z,8.40
2023-03-04T10:55:29.531Z,8.50
2023-03-04T10:59:52.837Z,8.60
2023-03-04T11:03:55.238Z,8.60
2023-03-04T11:07:59.261Z,8.70
2023-03-04T11:12:02.625Z,8.70
2023-03-04T11:16:06.152Z,8.90
2023-03-04T11:20:26.563Z,9.00
2023-03-04T11:24:30.336Z,9.10
2023-03-04T11:28:41.344Z,9.10
2023-03-04T11:32:45.728Z,9.20
2023-03-04T11:37:11.761Z,9.20
2023-03-04T11:41:18.556Z,9.20
2023-03-04T11:45:29.168Z,9.50
2023-03-04T11:49:39.006Z,9.50
2023-03-04T11:53:56.323Z,9.40
2023-03-04T11:58:12.958Z,9.40
2023-03-04T12:02:20.437Z,9.10
2023-03-04T12:06:42.430Z,9.30
2023-03-04T12:10:53.426Z,9.50
2023-03-04T12:15:22.295Z,9.40
2023-03-04T12:19:35.049Z,9.30
2023-03-04T12:23:43.164Z,9.20
2023-03-04T12:27:56.896Z,9.40
2023-03-04T12:32:08.139Z,9.30
2023-03-04T12:36:13.075Z,9.40
2023-03-04T12:40:24.207Z,9.40
2023-03-04T12:44:25.762Z,9.40
2023-03-04T12:48:31.055Z,9.50
2023-03-04T12:52:45.368Z,9.50
2023-03-04T12:56:53.088Z,9.40
2023-03-04T13:01:22.060Z,9.50
2023-03-04T13:05:45.033Z,9.30
2023-03-04T13:10:07.747Z,9.40
2023-03-04T13:14:17.430Z,9.70
2023-03-04T13:18:28.432Z,9.90
2023-03-04T13:22:42.568Z,10.00
2023-03-04T13:26:43.766Z,10.10
2023-03-04T13:30:58.851Z,10.10
2023-03-04T13:35:00.035Z,10.10
2023-03-04T13:39:05.003Z,10.20
2023-03-04T13:43:27.948Z,10.30
2023-03-04T13:47:36.071Z,10.40
2023-03-04T13:51:45.513Z,10.20
2023-03-04T13:56:02.767Z,10.00
2023-03-04T14:00:07.740Z,10.10
2023-03-04T14:04:22.072Z,10.10
2023-03-04T14:08:25.227Z,10.30
2023-03-04T14:12:29.123Z,10.30
2023-03-04T14:16:33.156Z,10.00
2023-03-04T14:20:37.177Z,10.20
2023-03-04T14:24:38.333Z,10.00
2023-03-04T14:28:48.108Z,9.90
2023-03-04T14:32:52.165Z,10.10
2023-03-04T14:36:53.431Z,9.90
2023-03-04T14:41:07.115Z,9.80
2023-03-04T14:45:12.201Z,9.90
2023-03-04T14:49:14.708Z,9.70
2023-03-04T14:53:18.771Z,9.40
2023-03-04T14:57:26.814Z,9.60
2023-03-04T15:01:33.954Z,9.60
2023-03-04T15:05:36.149Z,9.60
2023-03-04T15:09:40.118Z,9.60
2023-03-04T15:13:45.095Z,9.60
2023-03-04T15:17:50.066Z,9.60
2023-03-04T15:21:55.330Z,9.50
2023-03-04T15:26:03.039Z,9.30
2023-03-04T15:30:09.063Z,9.40
2023-03-04T15:34:15.927Z,9.40
2023-03-04T15:38:18.187Z,9.30
2023-03-04T15:42:19.333Z,9.10
2023-03-04T15:46:21.222Z,9.20
2023-03-04T15:50:26.151Z,9.10
2023-03-04T15:54:28.215Z,9.10
2023-03-04T15:58:32.606Z,9.10
2023-03-04T16:02:33.983Z,9.20
2023-03-04T16:06:35.345Z,9.10
2023-03-04T16:10:36.523Z,9.00
2023-03-04T16:14:38.790Z,9.00
2023-03-04T16:18:41.120Z,9.00
2023-03-04T16:22:44.692Z,9.00
2023-03-04T16:26:46.637Z,8.90
2023-03-04T16:30:48.924Z,8.80
2023-03-04T16:34:50.122Z,8.70
2023-03-04T16:38:53.893Z,8.60
2023-03-04T16:42:55.687Z,8.70
2023-03-04T16:46:56.836Z,8.70
2023-03-04T16:50:58.703Z,8.60
2023-03-04T16:55:00.088Z,8.70
2023-03-04T16:59:01.332Z,8.70
2023-03-04T17:03:03.712Z,8.60
2023-03-04T17:07:04.825Z,8.70
2023-03-04T17:11:05.996Z,8.60
2023-03-04T17:15:10.789Z,8.60
2023-03-04T17:19:11.979Z,8.60
2023-03-04T17:23:13.165Z,8.60
2023-03-04T17:27:14.347Z,8.70
2023-03-04T17:31:17.312Z,8.70
2023-03-04T17:35:18.724Z,8.60
2023-03-04T17:39:20.197Z,8.50
2023-03-04T17:43:22.195Z,8.50
2023-03-04T17:47:23.482Z,8.50
2023-03-04T17:51:33.466Z,8.50
2023-03-04T17:55:34.647Z,8.50
2023-03-04T17:59:35.919Z,8.60
2023-03-04T18:03:37.041Z,8.60
2023-03-04T18:07:38.332Z,8.60
2023-03-04T18:11:41.032Z,8.60
2023-03-04T18:15:42.209Z,8.50
2023-03-04T18:19:43.385Z,8.50
2023-03-04T18:23:44.925Z,8.60
2023-03-04T18:27:46.180Z,8.50
2023-03-04T18:31:47.591Z,8.60
2023-03-04T18:35:48.889Z,8.50
2023-03-04T18:39:50.058Z,8.50
2023-03-04T18:43:51.256Z,8.50
2023-03-04T18:47:52.648Z,8.40
2023-03-04T18:51:53.955Z,8.40
2023-03-04T18:56:00.861Z,8.40
2023-03-04T19:00:04.609Z,8.40
2023-03-04T19:04:05.964Z,8.30
2023-03-04T19:08:07.182Z,8.20
2023-03-04T19:12:08.463Z,8.30
2023-03-04T19:16:09.646Z,8.20
2023-03-04T19:20:12.687Z,8.20
2023-03-04T19:24:13.915Z,8.30
2023-03-04T19:28:15.095Z,8.30
2023-03-04T19:32:19.055Z,8.30
2023-03-04T19:36:20.220Z,8.30
2023-03-04T19:40:21.383Z,8.20
2023-03-04T19:44:23.634Z,8.30
2023-03-04T19:48:24.811Z,8.30
2023-03-04T19:52:26.194Z,8.30
2023-03-04T19:56:27.759Z,8.30
2023-03-04T20:00:28.939Z,8.30
2023-03-04T20:04:30.156Z,8.30
2023-03-04T20:08:31.427Z,8.30
2023-03-04T20:12:33.781Z,8.30
2023-03-04T20:16:34.970Z,8.40
2023-03-04T20:20:38.207Z,8.30
2023-03-04T20:24:39.451Z,8.30
2023-03-04T20:28:40.851Z,8.30
2023-03-04T20:32:42.160Z,8.30
2023-03-04T20:36:43.467Z,8.40
2023-03-04T20:40:44.714Z,8.40
2023-03-04T20:44:45.887Z,8.50
2023-03-04T20:48:47.141Z,8.50
2023-03-04T20:52:48.395Z,8.40
2023-03-04T20:56:49.761Z,8.40
2023-03-04T21:00:51.473Z,8.30
2023-03-04T21:04:54.535Z,8.40
2023-03-04T21:08:58.499Z,8.50
2023-03-04T21:12:59.678Z,8.50
2023-03-04T21:17:02.864Z,8.50
2023-03-04T21:21:07.815Z,8.50
2023-03-04T21:25:09.157Z,8.20
2023-03-04T21:29:11.630Z,8.30
2023-03-04T21:33:18.336Z,8.30
2023-03-04T21:37:20.861Z,8.30
2023-03-04T21:41:23.608Z,8.30
2023-03-04T21:45:24.779Z,8.30
2023-03-04T21:49:26.705Z,8.30
2023-03-04T21:53:28.147Z,8.30
2023-03-04T21:57:29.308Z,8.30
2023-03-04T22:01:30.515Z,8.30
2023-03-04T22:05:31.709Z,8.20
2023-03-04T22:09:32.887Z,8.20
2023-03-04T22:13:34.353Z,8.20
2023-03-04T22:17:35.557Z,8.30
2023-03-04T22:21:36.711Z,8.20
2023-03-04T22:25:40.284Z,8.20
2023-03-04T22:29:41.479Z,8.20
2023-03-04T22:33:44.043Z,8.10
2023-03-04T22:37:45.288Z,8.10
2023-03-04T22:41:46.478Z,8.10
2023-03-04T22:45:48.090Z,8.10
2023-03-04T22:49:49.239Z,8.10
2023-03-04T22:53:51.124Z,8.10
2023-03-04T22:57:52.278Z,8.10
2023-03-04T23:01:53.498Z,8.10
2023-03-04T23:06:06.669Z,8.10
2023-03-04T23:10:14.716Z,8.00
2023-03-04T23:14:15.915Z,8.00
2023-03-04T23:18:17.237Z,8.00
2023-03-04T23:22:18.815Z,8.00
2023-03-04T23:26:23.179Z,7.90
2023-03-04T23:30:24.487Z,7.90
2023-03-04T23:34:25.629Z,7.90
2023-03-04T23:38:27.100Z,7.90
2023-03-04T23:42:28.245Z,7.90
2023-03-04T23:46:29.830Z,8.00
2023-03-04T23:50:31.585Z,7.80
2023-03-04T23:54:32.824Z,7.90
2023-03-04T23:58:33.877Z,7.80
